sensor_id;sensor_type;location;lat;lon;timestamp;pressure;altitude;pressure_sealevel;temperature;humidity
41703;BME280;861;48.808;9.006;2023-02-26T00:01:42;96582.06;;;2.86;63.32
41703;BME280;861;48.808;9.006;2023-02-26T00:04:09;96579.03;;;3.03;61.74
41703;BME280;861;48.808;9.006;2023-02-26T00:06:40;96583.97;;;3.01;61.14
41703;BME280;861;48.808;9.006;2023-02-26T00:09:18;96575.66;;;2.90;61.24
41703;BME280;861;48.808;9.006;2023-02-26T00:11:46;96592.81;;;2.86;61.23
41703;BME280;861;48.808;9.006;2023-02-26T00:14:16;96584.84;;;2.74;62.22
41703;BME280;861;48.808;9.006;2023-02-26T00:17:04;96581.72;;;2.87;60.05
41703;BME280;861;48.808;9.006;2023-02-26T00:19:42;96588.22;;;2.71;60.87
41703;BME280;861;48.808;9.006;2023-02-26T00:22:09;96587.06;;;2.56;61.53
41703;BME280;861;48.808;9.006;2023-02-26T00:24:36;96588.56;;;2.26;63.07
41703;BME280;861;48.808;9.006;2023-02-26T00:27:02;96589.94;;;2.63;62.69
41703;BME280;861;48.808;9.006;2023-02-26T00:29:28;96591.53;;;2.80;62.34
41703;BME280;861;48.808;9.006;2023-02-26T00:31:55;96593.03;;;2.50;62.76
41703;BME280;861;48.808;9.006;2023-02-26T00:34:22;96590.81;;;2.67;62.27
41703;BME280;861;48.808;9.006;2023-02-26T00:37:32;96596.47;;;2.78;61.80
41703;BME280;861;48.808;9.006;2023-02-26T00:40:47;96597.91;;;2.60;62.28
41703;BME280;861;48.808;9.006;2023-02-26T00:43:23;96592.97;;;2.62;62.93
41703;BME280;861;48.808;9.006;2023-02-26T00:46:55;96597.84;;;2.72;62.79
41703;BME280;861;48.808;9.006;2023-02-26T00:50:17;96602.31;;;2.52;62.50
41703;BME280;861;48.808;9.006;2023-02-26T00:55:39;96591.28;;;2.85;61.72
41703;BME280;861;48.808;9.006;2023-02-26T00:58:05;96598.88;;;2.67;62.35
41703;BME280;861;48.808;9.006;2023-02-26T01:00:32;96594.56;;;2.78;60.71
41703;BME280;861;48.808;9.006;2023-02-26T01:02:58;96595.97;;;2.88;61.00
41703;BME280;861;48.808;9.006;2023-02-26T01:05:26;96595.84;;;2.69;60.78
41703;BME280;861;48.808;9.006;2023-02-26T01:08:20;96595.09;;;2.41;62.06
41703;BME280;861;48.808;9.006;2023-02-26T01:10:55;96592.66;;;2.36;62.50
41703;BME280;861;48.808;9.006;2023-02-26T01:13:22;96588.47;;;2.50;61.39
41703;BME280;861;48.808;9.006;2023-02-26T01:16:04;96596.03;;;2.33;62.50
41703;BME280;861;48.808;9.006;2023-02-26T01:18:55;96599.16;;;2.35;62.48
41703;BME280;861;48.808;9.006;2023-02-26T01:21:48;96592.44;;;2.56;61.65
41703;BME280;861;48.808;9.006;2023-02-26T01:24:28;96598.91;;;2.40;62.67
41703;BME280;861;48.808;9.006;2023-02-26T01:26:56;96590.88;;;2.55;61.14
41703;BME280;861;48.808;9.006;2023-02-26T01:29:23;96587.59;;;2.62;61.56
41703;BME280;861;48.808;9.006;2023-02-26T01:32:26;96588.69;;;2.45;63.08
41703;BME280;861;48.808;9.006;2023-02-26T01:35:29;96585.00;;;2.65;61.72
41703;BME280;861;48.808;9.006;2023-02-26T01:41:25;96585.59;;;2.59;61.77
41703;BME280;861;48.808;9.006;2023-02-26T01:44:38;96595.34;;;2.36;62.52
41703;BME280;861;48.808;9.006;2023-02-26T01:47:44;96596.50;;;2.35;61.93
41703;BME280;861;48.808;9.006;2023-02-26T01:50:24;96593.69;;;2.31;62.34
41703;BME280;861;48.808;9.006;2023-02-26T01:53:20;96598.75;;;2.21;62.25
41703;BME280;861;48.808;9.006;2023-02-26T01:56:05;96603.72;;;2.19;61.70
41703;BME280;861;48.808;9.006;2023-02-26T01:58:40;96603.16;;;2.13;62.83
41703;BME280;861;48.808;9.006;2023-02-26T02:01:07;96595.84;;;1.86;63.35
41703;BME280;861;48.808;9.006;2023-02-26T02:03:40;96592.59;;;2.05;62.98
41703;BME280;861;48.808;9.006;2023-02-26T02:06:21;96587.06;;;2.41;61.41
41703;BME280;861;48.808;9.006;2023-02-26T02:08:52;96589.50;;;2.18;61.71
41703;BME280;861;48.808;9.006;2023-02-26T02:11:19;96591.03;;;1.92;62.65
41703;BME280;861;48.808;9.006;2023-02-26T02:14:30;96597.44;;;1.87;63.52
41703;BME280;861;48.808;9.006;2023-02-26T02:21:14;96595.38;;;1.96;63.14
41703;BME280;861;48.808;9.006;2023-02-26T02:31:05;96601.31;;;2.02;62.11
41703;BME280;861;48.808;9.006;2023-02-26T02:34:09;96610.63;;;1.80;62.68
41703;BME280;861;48.808;9.006;2023-02-26T02:37:12;96610.56;;;1.65;63.37
41703;BME280;861;48.808;9.006;2023-02-26T02:40:04;96612.88;;;1.78;63.27
41703;BME280;861;48.808;9.006;2023-02-26T02:42:46;96612.41;;;1.88;62.74
41703;BME280;861;48.808;9.006;2023-02-26T02:46:06;96620.00;;;1.98;61.97
41703;BME280;861;48.808;9.006;2023-02-26T02:48:54;96615.31;;;1.83;62.53
41703;BME280;861;48.808;9.006;2023-02-26T02:52:18;96626.97;;;2.15;61.71
41703;BME280;861;48.808;9.006;2023-02-26T02:55:09;96623.88;;;2.13;62.00
41703;BME280;861;48.808;9.006;2023-02-26T02:58:01;96627.94;;;2.22;61.79
41703;BME280;861;48.808;9.006;2023-02-26T03:01:00;96625.47;;;2.29;61.06
41703;BME280;861;48.808;9.006;2023-02-26T03:03:59;96626.16;;;2.26;60.89
41703;BME280;861;48.808;9.006;2023-02-26T03:06:30;96628.91;;;2.42;60.80
41703;BME280;861;48.808;9.006;2023-02-26T03:09:00;96633.19;;;2.31;60.81
41703;BME280;861;48.808;9.006;2023-02-26T03:11:30;96625.81;;;2.28;61.28
41703;BME280;861;48.808;9.006;2023-02-26T03:13:58;96643.69;;;2.36;60.83
41703;BME280;861;48.808;9.006;2023-02-26T03:20:43;96640.78;;;2.41;61.58
41703;BME280;861;48.808;9.006;2023-02-26T03:23:35;96644.19;;;2.26;62.42
41703;BME280;861;48.808;9.006;2023-02-26T03:26:28;96642.22;;;2.38;61.58
41703;BME280;861;48.808;9.006;2023-02-26T03:29:55;96642.06;;;2.19;61.98
41703;BME280;861;48.808;9.006;2023-02-26T03:33:02;96644.41;;;2.21;61.89
41703;BME280;861;48.808;9.006;2023-02-26T03:35:57;96652.03;;;2.19;61.63
41703;BME280;861;48.808;9.006;2023-02-26T03:38:51;96644.69;;;2.16;61.14
41703;BME280;861;48.808;9.006;2023-02-26T03:41:39;96657.25;;;2.00;61.87
41703;BME280;861;48.808;9.006;2023-02-26T03:44:33;96655.78;;;2.02;62.26
41703;BME280;861;48.808;9.006;2023-02-26T03:47:14;96657.53;;;2.10;62.35
41703;BME280;861;48.808;9.006;2023-02-26T03:52:38;96662.72;;;2.03;62.28
41703;BME280;861;48.808;9.006;2023-02-26T03:55:17;96659.88;;;2.12;63.06
41703;BME280;861;48.808;9.006;2023-02-26T03:57:48;96666.38;;;2.11;63.83
41703;BME280;861;48.808;9.006;2023-02-26T04:00:16;96664.56;;;2.15;62.84
41703;BME280;861;48.808;9.006;2023-02-26T04:03:13;96672.22;;;2.13;62.69
41703;BME280;861;48.808;9.006;2023-02-26T04:05:52;96662.81;;;2.07;63.26
41703;BME280;861;48.808;9.006;2023-02-26T04:08:24;96665.59;;;2.10;63.42
41703;BME280;861;48.808;9.006;2023-02-26T04:11:10;96668.44;;;1.90;64.10
41703;BME280;861;48.808;9.006;2023-02-26T04:13:42;96670.66;;;2.00;62.78
41703;BME280;861;48.808;9.006;2023-02-26T04:16:08;96681.63;;;1.95;62.93
41703;BME280;861;48.808;9.006;2023-02-26T04:18:34;96674.91;;;2.01;62.57
41703;BME280;861;48.808;9.006;2023-02-26T04:21:00;96674.47;;;1.87;62.68
41703;BME280;861;48.808;9.006;2023-02-26T04:23:27;96672.94;;;1.86;62.87
41703;BME280;861;48.808;9.006;2023-02-26T04:25:53;96677.28;;;1.78;63.00
41703;BME280;861;48.808;9.006;2023-02-26T04:28:20;96680.22;;;1.73;62.95
41703;BME280;861;48.808;9.006;2023-02-26T04:30:46;96679.06;;;1.86;62.39
41703;BME280;861;48.808;9.006;2023-02-26T04:33:14;96664.13;;;1.73;62.92
41703;BME280;861;48.808;9.006;2023-02-26T04:35:41;96682.97;;;1.77;62.69
41703;BME280;861;48.808;9.006;2023-02-26T04:38:08;96682.91;;;1.73;62.56
41703;BME280;861;48.808;9.006;2023-02-26T04:40:34;96682.66;;;1.78;62.32
41703;BME280;861;48.808;9.006;2023-02-26T04:43:00;96691.06;;;1.65;62.76
41703;BME280;861;48.808;9.006;2023-02-26T04:45:26;96692.38;;;1.71;62.85
41703;BME280;861;48.808;9.006;2023-02-26T04:47:52;96694.88;;;1.64;62.97
41703;BME280;861;48.808;9.006;2023-02-26T04:50:18;96701.00;;;1.64;63.18
41703;BME280;861;48.808;9.006;2023-02-26T04:52:44;96708.28;;;1.64;62.22
41703;BME280;861;48.808;9.006;2023-02-26T04:55:11;96703.91;;;1.47;62.94
41703;BME280;861;48.808;9.006;2023-02-26T04:57:37;96698.66;;;1.38;63.20
41703;BME280;861;48.808;9.006;2023-02-26T05:00:04;96698.66;;;1.50;63.13
41703;BME280;861;48.808;9.006;2023-02-26T05:02:33;96705.34;;;1.56;62.72
41703;BME280;861;48.808;9.006;2023-02-26T05:05:00;96706.25;;;1.73;62.66
41703;BME280;861;48.808;9.006;2023-02-26T05:07:26;96710.94;;;1.39;63.37
41703;BME280;861;48.808;9.006;2023-02-26T05:09:52;96717.97;;;1.44;63.18
41703;BME280;861;48.808;9.006;2023-02-26T05:12:18;96713.97;;;1.38;63.64
41703;BME280;861;48.808;9.006;2023-02-26T05:14:45;96712.75;;;1.35;63.92
41703;BME280;861;48.808;9.006;2023-02-26T05:17:11;96719.88;;;1.19;64.53
41703;BME280;861;48.808;9.006;2023-02-26T05:19:37;96711.47;;;1.21;65.09
41703;BME280;861;48.808;9.006;2023-02-26T05:22:03;96712.16;;;1.18;64.74
41703;BME280;861;48.808;9.006;2023-02-26T05:24:29;96711.81;;;1.19;64.89
41703;BME280;861;48.808;9.006;2023-02-26T05:26:55;96712.84;;;1.51;63.89
41703;BME280;861;48.808;9.006;2023-02-26T05:29:21;96719.66;;;1.24;64.96
41703;BME280;861;48.808;9.006;2023-02-26T05:31:48;96710.56;;;1.17;65.37
41703;BME280;861;48.808;9.006;2023-02-26T05:34:14;96716.03;;;1.08;65.71
41703;BME280;861;48.808;9.006;2023-02-26T05:36:40;96716.63;;;1.26;65.07
41703;BME280;861;48.808;9.006;2023-02-26T05:39:06;96716.06;;;1.20;64.97
41703;BME280;861;48.808;9.006;2023-02-26T05:41:34;96725.66;;;1.21;64.97
41703;BME280;861;48.808;9.006;2023-02-26T05:44:00;96735.00;;;0.91;66.12
41703;BME280;861;48.808;9.006;2023-02-26T05:46:27;96736.63;;;0.84;66.28
41703;BME280;861;48.808;9.006;2023-02-26T05:48:53;96738.59;;;0.75;66.69
41703;BME280;861;48.808;9.006;2023-02-26T05:51:19;96742.13;;;0.67;67.13
41703;BME280;861;48.808;9.006;2023-02-26T05:53:46;96744.78;;;0.55;67.78
41703;BME280;861;48.808;9.006;2023-02-26T05:56:12;96757.56;;;1.02;65.70
41703;BME280;861;48.808;9.006;2023-02-26T05:58:38;96746.59;;;0.63;66.66
41703;BME280;861;48.808;9.006;2023-02-26T06:01:04;96753.94;;;0.86;65.99
41703;BME280;861;48.808;9.006;2023-02-26T06:03:30;96754.72;;;0.87;65.78
41703;BME280;861;48.808;9.006;2023-02-26T06:05:57;96760.03;;;0.75;66.25
41703;BME280;861;48.808;9.006;2023-02-26T06:08:23;96762.56;;;0.71;66.10
41703;BME280;861;48.808;9.006;2023-02-26T06:10:50;96765.78;;;0.65;66.38
41703;BME280;861;48.808;9.006;2023-02-26T06:13:18;96767.53;;;0.81;66.07
41703;BME280;861;48.808;9.006;2023-02-26T06:15:44;96768.16;;;0.99;65.27
41703;BME280;861;48.808;9.006;2023-02-26T06:18:14;96781.91;;;0.97;64.84
41703;BME280;861;48.808;9.006;2023-02-26T06:20:40;96781.50;;;0.87;65.39
41703;BME280;861;48.808;9.006;2023-02-26T06:23:06;96786.16;;;0.57;66.74
41703;BME280;861;48.808;9.006;2023-02-26T06:25:32;96791.84;;;0.56;66.19
41703;BME280;861;48.808;9.006;2023-02-26T06:27:58;96791.16;;;0.67;65.93
41703;BME280;861;48.808;9.006;2023-02-26T06:30:24;96793.97;;;0.50;66.39
41703;BME280;861;48.808;9.006;2023-02-26T06:32:50;96805.25;;;0.56;66.48
41703;BME280;861;48.808;9.006;2023-02-26T06:35:17;96806.22;;;0.51;66.54
41703;BME280;861;48.808;9.006;2023-02-26T06:37:43;96810.47;;;0.52;66.64
41703;BME280;861;48.808;9.006;2023-02-26T06:40:12;96810.06;;;0.42;66.60
41703;BME280;861;48.808;9.006;2023-02-26T06:42:38;96821.03;;;0.28;67.48
41703;BME280;861;48.808;9.006;2023-02-26T06:45:05;96821.13;;;0.61;67.20
41703;BME280;861;48.808;9.006;2023-02-26T06:47:32;96825.44;;;0.94;66.93
41703;BME280;861;48.808;9.006;2023-02-26T06:49:58;96829.53;;;1.12;66.45
41703;BME280;861;48.808;9.006;2023-02-26T06:52:25;96838.94;;;0.98;65.78
41703;BME280;861;48.808;9.006;2023-02-26T06:54:51;96841.69;;;1.10;66.00
41703;BME280;861;48.808;9.006;2023-02-26T06:57:17;96850.59;;;0.81;66.53
41703;BME280;861;48.808;9.006;2023-02-26T06:59:43;96855.50;;;0.79;66.89
41703;BME280;861;48.808;9.006;2023-02-26T07:02:19;96855.69;;;0.74;67.30
41703;BME280;861;48.808;9.006;2023-02-26T07:04:46;96867.16;;;0.83;66.68
41703;BME280;861;48.808;9.006;2023-02-26T07:07:14;96867.59;;;0.85;66.81
41703;BME280;861;48.808;9.006;2023-02-26T07:09:41;96865.88;;;0.81;67.31
41703;BME280;861;48.808;9.006;2023-02-26T07:12:07;96869.50;;;0.85;67.59
41703;BME280;861;48.808;9.006;2023-02-26T07:14:34;96867.34;;;0.99;66.76
41703;BME280;861;48.808;9.006;2023-02-26T07:17:02;96871.09;;;0.98;67.29
41703;BME280;861;48.808;9.006;2023-02-26T07:19:29;96865.63;;;0.74;68.05
41703;BME280;861;48.808;9.006;2023-02-26T07:21:55;96871.66;;;0.91;67.99
41703;BME280;861;48.808;9.006;2023-02-26T07:24:22;96870.25;;;1.26;66.71
41703;BME280;861;48.808;9.006;2023-02-26T07:26:48;96875.91;;;1.45;65.97
41703;BME280;861;48.808;9.006;2023-02-26T07:29:14;96886.63;;;1.13;67.15
41703;BME280;861;48.808;9.006;2023-02-26T07:31:41;96873.78;;;0.98;68.35
41703;BME280;861;48.808;9.006;2023-02-26T07:34:07;96880.31;;;0.88;67.90
41703;BME280;861;48.808;9.006;2023-02-26T07:36:33;96887.25;;;1.63;65.32
41703;BME280;861;48.808;9.006;2023-02-26T07:38:59;96881.28;;;1.25;67.25
41703;BME280;861;48.808;9.006;2023-02-26T07:41:25;96891.31;;;1.48;65.59
41703;BME280;861;48.808;9.006;2023-02-26T07:43:51;96885.66;;;1.29;66.35
41703;BME280;861;48.808;9.006;2023-02-26T07:46:17;96888.97;;;1.14;67.28
41703;BME280;861;48.808;9.006;2023-02-26T07:48:44;96888.75;;;1.40;66.01
41703;BME280;861;48.808;9.006;2023-02-26T07:51:10;96889.50;;;1.40;66.69
41703;BME280;861;48.808;9.006;2023-02-26T07:53:36;96891.31;;;1.48;66.16
41703;BME280;861;48.808;9.006;2023-02-26T07:56:03;96902.03;;;0.95;68.49
41703;BME280;861;48.808;9.006;2023-02-26T07:58:29;96892.25;;;0.79;69.24
41703;BME280;861;48.808;9.006;2023-02-26T08:00:57;96905.19;;;1.18;68.47
41703;BME280;861;48.808;9.006;2023-02-26T08:03:23;96896.81;;;0.99;69.12
41703;BME280;861;48.808;9.006;2023-02-26T08:05:49;96904.53;;;1.00;68.32
41703;BME280;861;48.808;9.006;2023-02-26T08:08:16;96899.41;;;1.28;67.82
41703;BME280;861;48.808;9.006;2023-02-26T08:10:42;96905.25;;;1.09;68.79
41703;BME280;861;48.808;9.006;2023-02-26T08:13:09;96899.25;;;1.45;67.22
41703;BME280;861;48.808;9.006;2023-02-26T08:15:35;96897.97;;;1.30;67.63
41703;BME280;861;48.808;9.006;2023-02-26T08:18:01;96908.22;;;1.49;67.62
41703;BME280;861;48.808;9.006;2023-02-26T08:20:28;96901.31;;;1.60;66.83
41703;BME280;861;48.808;9.006;2023-02-26T08:22:54;96900.25;;;1.40;67.21
41703;BME280;861;48.808;9.006;2023-02-26T08:25:20;96902.03;;;1.36;66.56
41703;BME280;861;48.808;9.006;2023-02-26T08:27:46;96909.41;;;1.39;67.73
41703;BME280;861;48.808;9.006;2023-02-26T08:30:13;96912.75;;;1.36;68.10
41703;BME280;861;48.808;9.006;2023-02-26T08:32:40;96913.22;;;1.38;68.16
41703;BME280;861;48.808;9.006;2023-02-26T08:35:09;96909.13;;;1.53;67.85
41703;BME280;861;48.808;9.006;2023-02-26T08:37:35;96915.75;;;1.35;68.29
41703;BME280;861;48.808;9.006;2023-02-26T08:40:01;96921.63;;;1.82;66.86
41703;BME280;861;48.808;9.006;2023-02-26T08:42:28;96910.06;;;2.02;65.29
41703;BME280;861;48.808;9.006;2023-02-26T08:44:54;96921.72;;;1.73;65.73
41703;BME280;861;48.808;9.006;2023-02-26T08:47:21;96929.38;;;1.95;64.29
41703;BME280;861;48.808;9.006;2023-02-26T08:49:47;96921.25;;;1.71;66.43
41703;BME280;861;48.808;9.006;2023-02-26T08:52:13;96918.56;;;1.71;66.24
41703;BME280;861;48.808;9.006;2023-02-26T08:54:40;96927.84;;;1.74;66.61
41703;BME280;861;48.808;9.006;2023-02-26T08:57:06;96919.41;;;1.96;65.83
41703;BME280;861;48.808;9.006;2023-02-26T08:59:32;96929.06;;;1.97;66.05
41703;BME280;861;48.808;9.006;2023-02-26T09:01:58;96932.09;;;2.07;65.53
41703;BME280;861;48.808;9.006;2023-02-26T09:04:24;96924.22;;;1.90;66.22
41703;BME280;861;48.808;9.006;2023-02-26T09:06:51;96930.34;;;1.79;66.76
41703;BME280;861;48.808;9.006;2023-02-26T09:09:18;96929.94;;;1.89;65.85
41703;BME280;861;48.808;9.006;2023-02-26T09:11:44;96938.97;;;1.84;65.51
41703;BME280;861;48.808;9.006;2023-02-26T09:14:11;96939.34;;;1.62;66.51
41703;BME280;861;48.808;9.006;2023-02-26T09:16:37;96949.78;;;1.43;67.94
41703;BME280;861;48.808;9.006;2023-02-26T09:19:06;96951.94;;;1.49;67.59
41703;BME280;861;48.808;9.006;2023-02-26T09:21:33;96963.56;;;1.33;68.24
41703;BME280;861;48.808;9.006;2023-02-26T09:24:01;96964.59;;;1.20;68.66
41703;BME280;861;48.808;9.006;2023-02-26T09:26:27;96960.75;;;1.29;68.79
41703;BME280;861;48.808;9.006;2023-02-26T09:28:53;96963.09;;;1.10;69.81
41703;BME280;861;48.808;9.006;2023-02-26T09:31:19;96960.88;;;1.12;69.55
41703;BME280;861;48.808;9.006;2023-02-26T09:33:45;96969.88;;;1.37;68.85
41703;BME280;861;48.808;9.006;2023-02-26T09:36:11;96969.66;;;1.42;69.31
41703;BME280;861;48.808;9.006;2023-02-26T09:38:38;96969.78;;;1.45;69.19
41703;BME280;861;48.808;9.006;2023-02-26T09:41:48;96971.28;;;1.55;68.69
41703;BME280;861;48.808;9.006;2023-02-26T09:44:35;96973.97;;;1.55;69.07
41703;BME280;861;48.808;9.006;2023-02-26T09:47:47;96983.28;;;1.58;69.41
41703;BME280;861;48.808;9.006;2023-02-26T09:50:33;96980.63;;;1.70;68.89
41703;BME280;861;48.808;9.006;2023-02-26T09:53:34;96987.19;;;1.60;68.53
41703;BME280;861;48.808;9.006;2023-02-26T09:56:25;96993.06;;;1.12;71.10
41703;BME280;861;48.808;9.006;2023-02-26T09:58:53;96992.22;;;1.62;69.54
41703;BME280;861;48.808;9.006;2023-02-26T10:01:32;96990.25;;;1.71;68.68
41703;BME280;861;48.808;9.006;2023-02-26T10:04:48;96990.66;;;1.61;68.70
41703;BME280;861;48.808;9.006;2023-02-26T10:08:15;96994.88;;;1.82;68.94
41703;BME280;861;48.808;9.006;2023-02-26T10:14:22;96998.28;;;1.50;70.99
41703;BME280;861;48.808;9.006;2023-02-26T10:17:05;96996.13;;;1.64;70.04
41703;BME280;861;48.808;9.006;2023-02-26T10:19:52;97001.72;;;1.38;70.54
41703;BME280;861;48.808;9.006;2023-02-26T10:22:40;97012.44;;;1.59;70.33
41703;BME280;861;48.808;9.006;2023-02-26T10:25:30;97008.91;;;1.46;70.62
41703;BME280;861;48.808;9.006;2023-02-26T10:35:10;97007.09;;;1.59;70.99
41703;BME280;861;48.808;9.006;2023-02-26T10:37:57;97017.88;;;1.50;70.55
41703;BME280;861;48.808;9.006;2023-02-26T10:40:49;97021.72;;;1.62;70.66
41703;BME280;861;48.808;9.006;2023-02-26T10:43:38;97015.22;;;1.83;69.91
41703;BME280;861;48.808;9.006;2023-02-26T10:47:22;97018.19;;;1.90;70.58
41703;BME280;861;48.808;9.006;2023-02-26T10:50:14;97026.09;;;2.19;69.29
41703;BME280;861;48.808;9.006;2023-02-26T10:52:46;97020.31;;;2.29;67.46
41703;BME280;861;48.808;9.006;2023-02-26T10:55:43;97018.59;;;2.13;69.04
41703;BME280;861;48.808;9.006;2023-02-26T10:58:25;97029.09;;;2.18;68.26
41703;BME280;861;48.808;9.006;2023-02-26T11:00:55;97020.66;;;2.28;67.48
41703;BME280;861;48.808;9.006;2023-02-26T11:03:41;97021.91;;;2.10;68.08
41703;BME280;861;48.808;9.006;2023-02-26T11:06:21;97037.69;;;2.11;67.86
41703;BME280;861;48.808;9.006;2023-02-26T11:08:56;97025.16;;;2.36;66.95
41703;BME280;861;48.808;9.006;2023-02-26T11:12:05;97033.88;;;2.33;66.84
41703;BME280;861;48.808;9.006;2023-02-26T11:14:43;97035.78;;;2.00;67.87
41703;BME280;861;48.808;9.006;2023-02-26T11:17:33;97020.97;;;2.26;66.51
41703;BME280;861;48.808;9.006;2023-02-26T11:20:16;97029.84;;;2.39;66.83
41703;BME280;861;48.808;9.006;2023-02-26T11:22:53;97032.47;;;2.47;66.52
41703;BME280;861;48.808;9.006;2023-02-26T11:25:29;97036.25;;;2.46;65.78
41703;BME280;861;48.808;9.006;2023-02-26T11:28:31;97027.50;;;2.37;65.84
41703;BME280;861;48.808;9.006;2023-02-26T11:31:08;97027.47;;;2.25;67.05
41703;BME280;861;48.808;9.006;2023-02-26T11:33:44;97020.84;;;2.23;66.73
41703;BME280;861;48.808;9.006;2023-02-26T11:36:23;97017.22;;;2.63;65.49
41703;BME280;861;48.808;9.006;2023-02-26T11:39:06;97017.94;;;2.72;66.44
41703;BME280;861;48.808;9.006;2023-02-26T11:41:45;97022.09;;;2.82;65.65
41703;BME280;861;48.808;9.006;2023-02-26T11:44:19;97016.72;;;2.82;65.49
41703;BME280;861;48.808;9.006;2023-02-26T11:47:20;97019.16;;;2.75;66.03
41703;BME280;861;48.808;9.006;2023-02-26T11:50:02;97015.13;;;3.05;64.88
41703;BME280;861;48.808;9.006;2023-02-26T11:52:43;97018.72;;;2.97;64.79
41703;BME280;861;48.808;9.006;2023-02-26T11:55:36;97015.09;;;3.17;63.84
41703;BME280;861;48.808;9.006;2023-02-26T11:58:24;97014.69;;;2.91;63.55
41703;BME280;861;48.808;9.006;2023-02-26T12:01:00;97018.34;;;3.10;63.56
41703;BME280;861;48.808;9.006;2023-02-26T12:03:33;97023.66;;;2.83;63.72
41703;BME280;861;48.808;9.006;2023-02-26T12:06:18;97022.38;;;3.29;61.21
41703;BME280;861;48.808;9.006;2023-02-26T12:08:47;97025.09;;;3.17;61.46
41703;BME280;861;48.808;9.006;2023-02-26T12:22:14;97038.19;;;3.06;62.68
41703;BME280;861;48.808;9.006;2023-02-26T12:32:05;97023.97;;;2.69;63.85
41703;BME280;861;48.808;9.006;2023-02-26T12:35:17;97027.66;;;2.89;63.49
41703;BME280;861;48.808;9.006;2023-02-26T12:38:34;97021.28;;;2.81;63.50
41703;BME280;861;48.808;9.006;2023-02-26T12:41:48;97026.34;;;2.71;63.63
41703;BME280;861;48.808;9.006;2023-02-26T12:49:04;97019.16;;;3.11;62.96
41703;BME280;861;48.808;9.006;2023-02-26T12:55:33;97039.88;;;3.10;63.15
41703;BME280;861;48.808;9.006;2023-02-26T12:59:02;97034.28;;;2.79;63.85
41703;BME280;861;48.808;9.006;2023-02-26T13:02:23;97047.03;;;2.82;63.71
41703;BME280;861;48.808;9.006;2023-02-26T13:09:12;97048.38;;;2.88;63.81
41703;BME280;861;48.808;9.006;2023-02-26T13:12:11;97042.13;;;2.84;64.29
41703;BME280;861;48.808;9.006;2023-02-26T13:15:40;97049.53;;;3.11;62.44
41703;BME280;861;48.808;9.006;2023-02-26T13:18:52;97051.97;;;3.04;62.94
41703;BME280;861;48.808;9.006;2023-02-26T13:21:36;97045.38;;;3.02;63.47
41703;BME280;861;48.808;9.006;2023-02-26T13:24:35;97057.91;;;2.74;62.26
41703;BME280;861;48.808;9.006;2023-02-26T13:27:13;97055.44;;;2.81;61.93
41703;BME280;861;48.808;9.006;2023-02-26T13:29:54;97055.56;;;2.84;62.89
41703;BME280;861;48.808;9.006;2023-02-26T13:32:34;97052.97;;;3.12;62.31
41703;BME280;861;48.808;9.006;2023-02-26T13:35:26;97070.81;;;2.92;61.31
41703;BME280;861;48.808;9.006;2023-02-26T13:38:06;97056.81;;;3.11;60.87
41703;BME280;861;48.808;9.006;2023-02-26T13:41:15;97058.16;;;3.29;61.41
41703;BME280;861;48.808;9.006;2023-02-26T13:44:38;97052.31;;;3.27;61.47
41703;BME280;861;48.808;9.006;2023-02-26T13:48:17;97054.00;;;3.07;63.54
41703;BME280;861;48.808;9.006;2023-02-26T13:54:07;97066.09;;;3.50;62.65
41703;BME280;861;48.808;9.006;2023-02-26T13:57:32;97065.00;;;3.39;62.50
41703;BME280;861;48.808;9.006;2023-02-26T14:00:34;97062.81;;;3.56;61.72
41703;BME280;861;48.808;9.006;2023-02-26T14:08:26;97066.56;;;3.40;61.34
41703;BME280;861;48.808;9.006;2023-02-26T14:11:37;97066.53;;;3.64;59.36
41703;BME280;861;48.808;9.006;2023-02-26T14:20:24;97074.22;;;3.77;57.81
41703;BME280;861;48.808;9.006;2023-02-26T14:25:45;97066.03;;;3.74;58.63
41703;BME280;861;48.808;9.006;2023-02-26T14:31:20;97077.31;;;4.03;57.39
41703;BME280;861;48.808;9.006;2023-02-26T14:34:28;97072.78;;;4.07;56.71
41703;BME280;861;48.808;9.006;2023-02-26T14:37:07;97074.69;;;3.79;58.03
41703;BME280;861;48.808;9.006;2023-02-26T14:39:53;97070.75;;;3.77;57.52
41703;BME280;861;48.808;9.006;2023-02-26T14:45:41;97071.59;;;3.93;55.40
41703;BME280;861;48.808;9.006;2023-02-26T14:48:17;97065.28;;;3.73;54.00
41703;BME280;861;48.808;9.006;2023-02-26T14:54:53;97089.81;;;3.84;53.20
41703;BME280;861;48.808;9.006;2023-02-26T15:07:47;97086.94;;;4.04;54.02
41703;BME280;861;48.808;9.006;2023-02-26T15:24:46;97120.03;;;3.53;55.08
41703;BME280;861;48.808;9.006;2023-02-26T15:27:19;97109.38;;;3.69;54.99
41703;BME280;861;48.808;9.006;2023-02-26T15:29:49;97106.44;;;3.62;55.58
41703;BME280;861;48.808;9.006;2023-02-26T15:32:30;97119.44;;;3.60;56.01
41703;BME280;861;48.808;9.006;2023-02-26T15:35:59;97121.16;;;3.28;56.66
41703;BME280;861;48.808;9.006;2023-02-26T15:38:48;97116.69;;;3.32;56.17
41703;BME280;861;48.808;9.006;2023-02-26T15:41:18;97130.69;;;3.13;57.02
41703;BME280;861;48.808;9.006;2023-02-26T15:43:56;97123.59;;;3.09;56.79
41703;BME280;861;48.808;9.006;2023-02-26T15:46:38;97127.75;;;3.06;57.43
41703;BME280;861;48.808;9.006;2023-02-26T15:49:39;97119.69;;;3.18;57.15
41703;BME280;861;48.808;9.006;2023-02-26T15:52:20;97122.16;;;3.24;58.00
41703;BME280;861;48.808;9.006;2023-02-26T15:55:02;97121.81;;;3.61;56.86
41703;BME280;861;48.808;9.006;2023-02-26T15:57:31;97122.44;;;3.94;56.66
41703;BME280;861;48.808;9.006;2023-02-26T16:00:18;97119.47;;;4.11;56.19
41703;BME280;861;48.808;9.006;2023-02-26T16:02:56;97131.66;;;4.33;54.79
41703;BME280;861;48.808;9.006;2023-02-26T16:05:26;97126.16;;;4.29;54.63
41703;BME280;861;48.808;9.006;2023-02-26T16:07:55;97124.59;;;4.28;53.36
41703;BME280;861;48.808;9.006;2023-02-26T16:10:40;97135.47;;;4.32;52.84
41703;BME280;861;48.808;9.006;2023-02-26T16:13:30;97140.56;;;4.21;53.05
41703;BME280;861;48.808;9.006;2023-02-26T16:16:14;97145.91;;;3.82;52.43
41703;BME280;861;48.808;9.006;2023-02-26T16:18:47;97147.84;;;3.57;53.16
41703;BME280;861;48.808;9.006;2023-02-26T16:21:44;97151.00;;;3.59;53.05
41703;BME280;861;48.808;9.006;2023-02-26T16:24:18;97158.25;;;3.35;54.22
41703;BME280;861;48.808;9.006;2023-02-26T16:27:01;97171.16;;;3.29;55.57
41703;BME280;861;48.808;9.006;2023-02-26T16:29:35;97166.13;;;3.28;55.29
41703;BME280;861;48.808;9.006;2023-02-26T16:32:12;97180.44;;;3.20;55.46